sensor_id;sensor_type;location;lat;lon;timestamp;pressure;altitude;pressure_sealevel;temperature
48003;BMP280;33768;48.578;11.574;2023-04-09T00:01:35;97104.75;;;4.72
48003;BMP280;33768;48.578;11.574;2023-04-09T00:04:39;97096.16;;;4.73
48003;BMP280;33768;48.578;11.574;2023-04-09T00:07:43;97097.66;;;4.74
48003;BMP280;33768;48.578;11.574;2023-04-09T00:10:47;97087.97;;;4.68
48003;BMP280;33768;48.578;11.574;2023-04-09T00:13:52;97096.38;;;4.56
48003;BMP280;33768;48.578;11.574;2023-04-09T00:16:56;97094.16;;;4.54
48003;BMP280;33768;48.578;11.574;2023-04-09T00:20:00;97092.50;;;4.57
48003;BMP280;33768;48.578;11.574;2023-04-09T00:23:04;97091.53;;;4.60
48003;BMP280;33768;48.578;11.574;2023-04-09T00:26:08;97086.66;;;4.64
48003;BMP280;33768;48.578;11.574;2023-04-09T00:29:13;97077.38;;;4.65
48003;BMP280;33768;48.578;11.574;2023-04-09T00:32:17;97088.47;;;4.67
48003;BMP280;33768;48.578;11.574;2023-04-09T00:35:21;97082.56;;;4.68
48003;BMP280;33768;48.578;11.574;2023-04-09T00:38:25;97086.22;;;4.65
48003;BMP280;33768;48.578;11.574;2023-04-09T00:41:30;97082.97;;;4.61
48003;BMP280;33768;48.578;11.574;2023-04-09T00:44:34;97088.56;;;4.58
48003;BMP280;33768;48.578;11.574;2023-04-09T00:47:38;97093.69;;;4.56
48003;BMP280;33768;48.578;11.574;2023-04-09T00:50:42;97082.06;;;4.50
48003;BMP280;33768;48.578;11.574;2023-04-09T00:53:46;97077.31;;;4.45
48003;BMP280;33768;48.578;11.574;2023-04-09T00:56:51;97085.63;;;4.41
48003;BMP280;33768;48.578;11.574;2023-04-09T00:59:55;97088.78;;;4.40
48003;BMP280;33768;48.578;11.574;2023-04-09T01:03:00;97073.88;;;4.44
48003;BMP280;33768;48.578;11.574;2023-04-09T01:09:28;97083.81;;;4.53
48003;BMP280;33768;48.578;11.574;2023-04-09T01:15:59;97079.81;;;4.48
48003;BMP280;33768;48.578;11.574;2023-04-09T01:22:46;97073.22;;;4.35
48003;BMP280;33768;48.578;11.574;2023-04-09T01:29:30;97068.56;;;4.35
48003;BMP280;33768;48.578;11.574;2023-04-09T01:32:35;97073.50;;;4.37
48003;BMP280;33768;48.578;11.574;2023-04-09T01:35:45;97070.34;;;4.38
48003;BMP280;33768;48.578;11.574;2023-04-09T01:38:51;97077.03;;;4.43
48003;BMP280;33768;48.578;11.574;2023-04-09T01:41:55;97070.69;;;4.46
48003;BMP280;33768;48.578;11.574;2023-04-09T01:45:01;97071.63;;;4.43
48003;BMP280;33768;48.578;11.574;2023-04-09T01:48:06;97074.53;;;4.39
48003;BMP280;33768;48.578;11.574;2023-04-09T01:51:11;97074.53;;;4.39
48003;BMP280;33768;48.578;11.574;2023-04-09T01:54:19;97071.63;;;4.43
48003;BMP280;33768;48.578;11.574;2023-04-09T01:57:23;97076.84;;;4.46
48003;BMP280;33768;48.578;11.574;2023-04-09T02:00:32;97072.19;;;4.47
48003;BMP280;33768;48.578;11.574;2023-04-09T02:03:45;97072.94;;;4.47
48003;BMP280;33768;48.578;11.574;2023-04-09T02:07:05;97077.03;;;4.43
48003;BMP280;33768;48.578;11.574;2023-04-09T02:10:12;97068.66;;;4.41
48003;BMP280;33768;48.578;11.574;2023-04-09T02:13:18;97076.94;;;4.37
48003;BMP280;33768;48.578;11.574;2023-04-09T02:16:23;97081.25;;;4.30
48003;BMP280;33768;48.578;11.574;2023-04-09T02:19:42;97082.00;;;4.30
48003;BMP280;33768;48.578;11.574;2023-04-09T02:22:46;97077.81;;;4.29
48003;BMP280;33768;48.578;11.574;2023-04-09T02:25:52;97076.31;;;4.28
48003;BMP280;33768;48.578;11.574;2023-04-09T02:28:56;97057.88;;;4.27
48003;BMP280;33768;48.578;11.574;2023-04-09T02:32:00;97055.63;;;4.25
48003;BMP280;33768;48.578;11.574;2023-04-09T02:35:05;97057.22;;;4.17
48003;BMP280;33768;48.578;11.574;2023-04-09T02:38:10;97056.13;;;4.09
48003;BMP280;33768;48.578;11.574;2023-04-09T02:41:19;97064.22;;;4.09
48003;BMP280;33768;48.578;11.574;2023-04-09T02:44:24;97086.13;;;4.11
48003;BMP280;33768;48.578;11.574;2023-04-09T02:47:28;97095.53;;;4.02
48003;BMP280;33768;48.578;11.574;2023-04-09T02:50:33;97104.94;;;3.92
48003;BMP280;33768;48.578;11.574;2023-04-09T02:53:37;97083.91;;;3.81
48003;BMP280;33768;48.578;11.574;2023-04-09T02:56:43;97092.06;;;3.72
48003;BMP280;33768;48.578;11.574;2023-04-09T02:59:47;97089.53;;;3.55
48003;BMP280;33768;48.578;11.574;2023-04-09T03:02:51;97087.88;;;3.43
48003;BMP280;33768;48.578;11.574;2023-04-09T03:05:56;97096.59;;;3.38
48003;BMP280;33768;48.578;11.574;2023-04-09T03:09:00;97086.72;;;3.35
48003;BMP280;33768;48.578;11.574;2023-04-09T03:12:04;97099.34;;;3.29
48003;BMP280;33768;48.578;11.574;2023-04-09T03:15:09;97093.66;;;3.27
48003;BMP280;33768;48.578;11.574;2023-04-09T03:18:13;97097.63;;;3.17
48003;BMP280;33768;48.578;11.574;2023-04-09T03:21:19;97089.44;;;3.12
48003;BMP280;33768;48.578;11.574;2023-04-09T03:24:26;97096.09;;;3.02
48003;BMP280;33768;48.578;11.574;2023-04-09T03:27:31;97086.88;;;2.94
48003;BMP280;33768;48.578;11.574;2023-04-09T03:30:35;97092.34;;;2.85
48003;BMP280;33768;48.578;11.574;2023-04-09T03:33:41;97086.69;;;2.75
48003;BMP280;33768;48.578;11.574;2023-04-09T03:36:46;97100.97;;;2.66
48003;BMP280;33768;48.578;11.574;2023-04-09T03:39:59;97095.16;;;2.59
48003;BMP280;33768;48.578;11.574;2023-04-09T03:43:06;97096.09;;;2.56
48003;BMP280;33768;48.578;11.574;2023-04-09T03:46:13;97095.03;;;2.53
48003;BMP280;33768;48.578;11.574;2023-04-09T03:49:20;97100.75;;;2.55
48003;BMP280;33768;48.578;11.574;2023-04-09T03:52:24;97114.50;;;2.57
48003;BMP280;33768;48.578;11.574;2023-04-09T03:55:45;97108.50;;;2.62
48003;BMP280;33768;48.578;11.574;2023-04-09T03:58:56;97096.31;;;2.67
48003;BMP280;33768;48.578;11.574;2023-04-09T04:02:09;97098.50;;;2.77
48003;BMP280;33768;48.578;11.574;2023-04-09T04:05:22;97102.94;;;2.89
48003;BMP280;33768;48.578;11.574;2023-04-09T04:08:28;97107.41;;;2.92
48003;BMP280;33768;48.578;11.574;2023-04-09T04:11:32;97103.16;;;3.00
48003;BMP280;33768;48.578;11.574;2023-04-09T04:14:36;97091.91;;;3.01
48003;BMP280;33768;48.578;11.574;2023-04-09T04:17:50;97094.03;;;2.97
48003;BMP280;33768;48.578;11.574;2023-04-09T04:21:03;97093.47;;;2.93
48003;BMP280;33768;48.578;11.574;2023-04-09T04:24:09;97094.72;;;2.83
48003;BMP280;33768;48.578;11.574;2023-04-09T04:27:13;97095.06;;;2.77
48003;BMP280;33768;48.578;11.574;2023-04-09T04:30:17;97100.75;;;2.55
48003;BMP280;33768;48.578;11.574;2023-04-09T04:33:35;97100.97;;;2.34
48003;BMP280;33768;48.578;11.574;2023-04-09T04:36:44;97099.84;;;2.17
48003;BMP280;33768;48.578;11.574;2023-04-09T04:39:49;97093.88;;;2.14
48003;BMP280;33768;48.578;11.574;2023-04-09T04:42:54;97101.94;;;2.14
48003;BMP280;33768;48.578;11.574;2023-04-09T04:45:58;97100.75;;;2.15
48003;BMP280;33768;48.578;11.574;2023-04-09T04:49:05;97102.69;;;2.14
48003;BMP280;33768;48.578;11.574;2023-04-09T04:52:15;97109.91;;;2.08
48003;BMP280;33768;48.578;11.574;2023-04-09T04:55:24;97109.03;;;1.93
48003;BMP280;33768;48.578;11.574;2023-04-09T04:58:29;97109.19;;;1.90
48003;BMP280;33768;48.578;11.574;2023-04-09T05:01:37;97116.63;;;2.13
48003;BMP280;33768;48.578;11.574;2023-04-09T05:04:46;97123.91;;;2.21
48003;BMP280;33768;48.578;11.574;2023-04-09T05:07:53;97125.56;;;2.18
48003;BMP280;33768;48.578;11.574;2023-04-09T05:10:59;97125.56;;;2.18
48003;BMP280;33768;48.578;11.574;2023-04-09T05:14:10;97116.91;;;2.15
48003;BMP280;33768;48.578;11.574;2023-04-09T05:17:16;97129.47;;;2.17
48003;BMP280;33768;48.578;11.574;2023-04-09T05:20:23;97118.34;;;2.33
48003;BMP280;33768;48.578;11.574;2023-04-09T05:23:39;97126.59;;;2.62
48003;BMP280;33768;48.578;11.574;2023-04-09T05:26:43;97115.13;;;3.08
48003;BMP280;33768;48.578;11.574;2023-04-09T05:29:47;97128.47;;;3.63
48003;BMP280;33768;48.578;11.574;2023-04-09T05:32:52;97128.13;;;3.84
48003;BMP280;33768;48.578;11.574;2023-04-09T05:35:56;97132.53;;;3.96
48003;BMP280;33768;48.578;11.574;2023-04-09T05:39:00;97125.06;;;4.19
48003;BMP280;33768;48.578;11.574;2023-04-09T05:42:05;97125.59;;;4.37
48003;BMP280;33768;48.578;11.574;2023-04-09T05:45:14;97122.81;;;4.32
48003;BMP280;33768;48.578;11.574;2023-04-09T05:48:28;97127.47;;;4.17
48003;BMP280;33768;48.578;11.574;2023-04-09T05:51:35;97138.78;;;4.16
48003;BMP280;33768;48.578;11.574;2023-04-09T05:54:42;97132.03;;;4.40
48003;BMP280;33768;48.578;11.574;2023-04-09T05:57:51;97129.38;;;4.94
48003;BMP280;33768;48.578;11.574;2023-04-09T06:00:56;97130.41;;;4.96
48003;BMP280;33768;48.578;11.574;2023-04-09T06:04:01;97140.03;;;4.97
48003;BMP280;33768;48.578;11.574;2023-04-09T06:07:07;97135.34;;;4.64
48003;BMP280;33768;48.578;11.574;2023-04-09T06:10:13;97140.88;;;4.55
48003;BMP280;33768;48.578;11.574;2023-04-09T06:13:20;97137.34;;;4.49
48003;BMP280;33768;48.578;11.574;2023-04-09T06:16:24;97136.69;;;4.54
48003;BMP280;33768;48.578;11.574;2023-04-09T06:19:28;97139.69;;;4.90
48003;BMP280;33768;48.578;11.574;2023-04-09T06:22:32;97142.50;;;5.15
48003;BMP280;33768;48.578;11.574;2023-04-09T06:25:37;97145.28;;;5.40
48003;BMP280;33768;48.578;11.574;2023-04-09T06:28:41;97151.22;;;5.63
48003;BMP280;33768;48.578;11.574;2023-04-09T06:31:45;97153.19;;;5.83
48003;BMP280;33768;48.578;11.574;2023-04-09T06:34:49;97163.09;;;6.11
48003;BMP280;33768;48.578;11.574;2023-04-09T06:37:54;97164.00;;;6.27
48003;BMP280;33768;48.578;11.574;2023-04-09T06:40:58;97169.75;;;6.65
48003;BMP280;33768;48.578;11.574;2023-04-09T06:44:02;97161.31;;;6.94
48003;BMP280;33768;48.578;11.574;2023-04-09T06:47:06;97166.69;;;7.24
48003;BMP280;33768;48.578;11.574;2023-04-09T06:50:11;97166.75;;;7.35
48003;BMP280;33768;48.578;11.574;2023-04-09T06:53:16;97162.91;;;7.63
48003;BMP280;33768;48.578;11.574;2023-04-09T06:56:20;97175.16;;;7.95
48003;BMP280;33768;48.578;11.574;2023-04-09T06:59:24;97166.63;;;8.34
48003;BMP280;33768;48.578;11.574;2023-04-09T07:02:28;97163.44;;;8.52
48003;BMP280;33768;48.578;11.574;2023-04-09T07:05:32;97160.44;;;8.61
48003;BMP280;33768;48.578;11.574;2023-04-09T07:08:36;97160.94;;;8.86
48003;BMP280;33768;48.578;11.574;2023-04-09T07:11:40;97159.44;;;9.12
48003;BMP280;33768;48.578;11.574;2023-04-09T07:14:45;97177.22;;;9.24
48003;BMP280;33768;48.578;11.574;2023-04-09T07:17:49;97165.84;;;9.20
48003;BMP280;33768;48.578;11.574;2023-04-09T07:20:53;97170.53;;;9.31
48003;BMP280;33768;48.578;11.574;2023-04-09T07:23:58;97170.97;;;9.51
48003;BMP280;33768;48.578;11.574;2023-04-09T07:27:02;97159.00;;;9.75
48003;BMP280;33768;48.578;11.574;2023-04-09T07:30:08;97166.44;;;9.69
48003;BMP280;33768;48.578;11.574;2023-04-09T07:33:14;97147.47;;;9.42
48003;BMP280;33768;48.578;11.574;2023-04-09T07:36:18;97151.72;;;9.33
48003;BMP280;33768;48.578;11.574;2023-04-09T07:39:22;97168.03;;;9.38
48003;BMP280;33768;48.578;11.574;2023-04-09T07:42:26;97163.00;;;9.64
48003;BMP280;33768;48.578;11.574;2023-04-09T07:45:31;97171.56;;;9.95
48003;BMP280;33768;48.578;11.574;2023-04-09T07:48:35;97172.25;;;10.06
48003;BMP280;33768;48.578;11.574;2023-04-09T07:51:39;97179.81;;;10.29
48003;BMP280;33768;48.578;11.574;2023-04-09T07:54:43;97184.69;;;10.41
48003;BMP280;33768;48.578;11.574;2023-04-09T07:57:47;97191.59;;;10.48
48003;BMP280;33768;48.578;11.574;2023-04-09T08:00:52;97190.16;;;10.41
48003;BMP280;33768;48.578;11.574;2023-04-09T08:03:56;97192.72;;;10.63
48003;BMP280;33768;48.578;11.574;2023-04-09T08:07:00;97196.91;;;11.27
48003;BMP280;33768;48.578;11.574;2023-04-09T08:10:05;97193.81;;;12.07
48003;BMP280;33768;48.578;11.574;2023-04-09T08:13:09;97195.97;;;12.50
48003;BMP280;33768;48.578;11.574;2023-04-09T08:16:14;97201.00;;;12.28
48003;BMP280;33768;48.578;11.574;2023-04-09T08:19:18;97204.44;;;11.92
48003;BMP280;33768;48.578;11.574;2023-04-09T08:22:23;97203.44;;;11.72
48003;BMP280;33768;48.578;11.574;2023-04-09T08:25:27;97203.22;;;11.17
48003;BMP280;33768;48.578;11.574;2023-04-09T08:28:31;97205.25;;;11.88
48003;BMP280;33768;48.578;11.574;2023-04-09T08:31:35;97209.56;;;12.19
48003;BMP280;33768;48.578;11.574;2023-04-09T08:34:40;97205.84;;;11.99
48003;BMP280;33768;48.578;11.574;2023-04-09T08:37:44;97206.97;;;12.09
48003;BMP280;33768;48.578;11.574;2023-04-09T08:40:49;97210.59;;;12.71
48003;BMP280;33768;48.578;11.574;2023-04-09T08:43:54;97210.44;;;13.57
48003;BMP280;33768;48.578;11.574;2023-04-09T08:46:58;97206.09;;;14.25
48003;BMP280;33768;48.578;11.574;2023-04-09T08:50:03;97215.38;;;15.01
48003;BMP280;33768;48.578;11.574;2023-04-09T08:53:08;97219.69;;;15.77
48003;BMP280;33768;48.578;11.574;2023-04-09T08:56:15;97224.59;;;16.69
48003;BMP280;33768;48.578;11.574;2023-04-09T08:59:20;97201.97;;;16.70
48003;BMP280;33768;48.578;11.574;2023-04-09T09:02:24;97198.72;;;16.29
48003;BMP280;33768;48.578;11.574;2023-04-09T09:05:35;97190.94;;;16.13
48003;BMP280;33768;48.578;11.574;2023-04-09T09:08:39;97200.78;;;16.09
48003;BMP280;33768;48.578;11.574;2023-04-09T09:11:45;97197.56;;;16.67
48003;BMP280;33768;48.578;11.574;2023-04-09T09:14:49;97191.78;;;16.36
48003;BMP280;33768;48.578;11.574;2023-04-09T09:17:56;97209.09;;;15.33
48003;BMP280;33768;48.578;11.574;2023-04-09T09:24:16;97192.41;;;16.14
48003;BMP280;33768;48.578;11.574;2023-04-09T09:27:36;97194.44;;;16.63
48003;BMP280;33768;48.578;11.574;2023-04-09T09:30:42;97192.34;;;16.42
48003;BMP280;33768;48.578;11.574;2023-04-09T09:33:49;97193.81;;;16.43
48003;BMP280;33768;48.578;11.574;2023-04-09T09:37:01;97189.19;;;15.68
48003;BMP280;33768;48.578;11.574;2023-04-09T09:40:05;97189.25;;;15.28
48003;BMP280;33768;48.578;11.574;2023-04-09T09:43:11;97196.28;;;14.63
48003;BMP280;33768;48.578;11.574;2023-04-09T09:46:15;97188.19;;;13.99
48003;BMP280;33768;48.578;11.574;2023-04-09T09:49:20;97197.88;;;14.12
48003;BMP280;33768;48.578;11.574;2023-04-09T09:52:24;97195.56;;;13.78
48003;BMP280;33768;48.578;11.574;2023-04-09T09:55:36;97191.97;;;14.08
48003;BMP280;33768;48.578;11.574;2023-04-09T09:58:48;97191.97;;;14.08
48003;BMP280;33768;48.578;11.574;2023-04-09T10:01:59;97197.66;;;13.85
48003;BMP280;33768;48.578;11.574;2023-04-09T10:05:04;97192.19;;;13.59
48003;BMP280;33768;48.578;11.574;2023-04-09T10:08:11;97198.28;;;12.96
48003;BMP280;33768;48.578;11.574;2023-04-09T10:11:16;97186.94;;;12.19
48003;BMP280;33768;48.578;11.574;2023-04-09T10:14:21;97197.16;;;12.18
48003;BMP280;33768;48.578;11.574;2023-04-09T10:17:25;97184.19;;;12.19
48003;BMP280;33768;48.578;11.574;2023-04-09T10:20:40;97182.88;;;12.25
48003;BMP280;33768;48.578;11.574;2023-04-09T10:23:47;97185.44;;;12.36
48003;BMP280;33768;48.578;11.574;2023-04-09T10:26:53;97178.84;;;12.63
48003;BMP280;33768;48.578;11.574;2023-04-09T10:29:57;97185.28;;;12.47
48003;BMP280;33768;48.578;11.574;2023-04-09T10:33:11;97179.13;;;11.87
48003;BMP280;33768;48.578;11.574;2023-04-09T10:36:17;97180.91;;;11.42
48003;BMP280;33768;48.578;11.574;2023-04-09T10:39:32;97195.59;;;11.10
48003;BMP280;33768;48.578;11.574;2023-04-09T10:42:38;97182.38;;;11.43
48003;BMP280;33768;48.578;11.574;2023-04-09T10:45:43;97180.84;;;11.48
48003;BMP280;33768;48.578;11.574;2023-04-09T10:48:48;97185.97;;;11.27
48003;BMP280;33768;48.578;11.574;2023-04-09T10:52:08;97190.34;;;11.12
48003;BMP280;33768;48.578;11.574;2023-04-09T10:55:34;97183.69;;;11.60
48003;BMP280;33768;48.578;11.574;2023-04-09T10:58:39;97188.56;;;11.67
48003;BMP280;33768;48.578;11.574;2023-04-09T11:01:51;97186.44;;;11.79
48003;BMP280;33768;48.578;11.574;2023-04-09T11:05:26;97177.97;;;11.58
48003;BMP280;33768;48.578;11.574;2023-04-09T11:08:31;97179.53;;;11.96
48003;BMP280;33768;48.578;11.574;2023-04-09T11:11:36;97173.84;;;12.30
48003;BMP280;33768;48.578;11.574;2023-04-09T11:14:40;97169.94;;;12.75
48003;BMP280;33768;48.578;11.574;2023-04-09T11:17:45;97168.41;;;13.11
48003;BMP280;33768;48.578;11.574;2023-04-09T11:20:58;97172.59;;;13.12
48003;BMP280;33768;48.578;11.574;2023-04-09T11:24:02;97166.69;;;12.77
48003;BMP280;33768;48.578;11.574;2023-04-09T11:27:06;97164.81;;;12.84
48003;BMP280;33768;48.578;11.574;2023-04-09T11:30:10;97166.13;;;12.96
48003;BMP280;33768;48.578;11.574;2023-04-09T11:33:14;97167.06;;;12.86
48003;BMP280;33768;48.578;11.574;2023-04-09T11:36:20;97167.97;;;12.76
48003;BMP280;33768;48.578;11.574;2023-04-09T11:39:24;97165.03;;;13.30
48003;BMP280;33768;48.578;11.574;2023-04-09T11:42:33;97155.06;;;12.71
48003;BMP280;33768;48.578;11.574;2023-04-09T11:45:37;97170.53;;;12.37
48003;BMP280;33768;48.578;11.574;2023-04-09T11:48:42;97163.22;;;13.20
48003;BMP280;33768;48.578;11.574;2023-04-09T11:51:46;97158.75;;;14.65
48003;BMP280;33768;48.578;11.574;2023-04-09T11:54:50;97144.00;;;15.91
48003;BMP280;33768;48.578;11.574;2023-04-09T11:57:59;97152.16;;;15.21
48003;BMP280;33768;48.578;11.574;2023-04-09T12:01:03;97165.06;;;14.93
48003;BMP280;33768;48.578;11.574;2023-04-09T12:04:08;97150.69;;;14.47
48003;BMP280;33768;48.578;11.574;2023-04-09T12:07:12;97153.56;;;14.41
48003;BMP280;33768;48.578;11.574;2023-04-09T12:10:16;97160.53;;;13.84
48003;BMP280;33768;48.578;11.574;2023-04-09T12:13:31;97160.69;;;14.24
48003;BMP280;33768;48.578;11.574;2023-04-09T12:16:35;97152.59;;;15.88
48003;BMP280;33768;48.578;11.574;2023-04-09T12:19:39;97154.44;;;15.85
48003;BMP280;33768;48.578;11.574;2023-04-09T12:22:43;97151.41;;;15.01
48003;BMP280;33768;48.578;11.574;2023-04-09T12:25:47;97142.28;;;15.81
48003;BMP280;33768;48.578;11.574;2023-04-09T12:28:51;97136.88;;;16.03
48003;BMP280;33768;48.578;11.574;2023-04-09T12:31:55;97152.38;;;14.50
48003;BMP280;33768;48.578;11.574;2023-04-09T12:35:00;97153.13;;;14.70
48003;BMP280;33768;48.578;11.574;2023-04-09T12:38:04;97136.03;;;15.80
48003;BMP280;33768;48.578;11.574;2023-04-09T12:41:08;97147.50;;;15.36
48003;BMP280;33768;48.578;11.574;2023-04-09T12:44:12;97147.50;;;15.36
48003;BMP280;33768;48.578;11.574;2023-04-09T12:47:16;97141.19;;;15.84
48003;BMP280;33768;48.578;11.574;2023-04-09T12:50:21;97139.72;;;15.83
48003;BMP280;33768;48.578;11.574;2023-04-09T12:53:25;97134.34;;;14.41
48003;BMP280;33768;48.578;11.574;2023-04-09T12:56:29;97146.91;;;13.53
48003;BMP280;33768;48.578;11.574;2023-04-09T12:59:33;97135.56;;;14.20
48003;BMP280;33768;48.578;11.574;2023-04-09T13:02:37;97137.38;;;14.91
48003;BMP280;33768;48.578;11.574;2023-04-09T13:05:41;97143.53;;;13.60
48003;BMP280;33768;48.578;11.574;2023-04-09T13:08:46;97141.78;;;12.93
48003;BMP280;33768;48.578;11.574;2023-04-09T13:11:50;97140.84;;;12.90
48003;BMP280;33768;48.578;11.574;2023-04-09T13:14:54;97133.09;;;13.58
48003;BMP280;33768;48.578;11.574;2023-04-09T13:17:58;97122.63;;;14.61
48003;BMP280;33768;48.578;11.574;2023-04-09T13:21:02;97118.16;;;15.39
48003;BMP280;33768;48.578;11.574;2023-04-09T13:24:07;97104.41;;;15.66
48003;BMP280;33768;48.578;11.574;2023-04-09T13:27:11;97113.13;;;16.27
48003;BMP280;33768;48.578;11.574;2023-04-09T13:30:14;97109.91;;;15.66
48003;BMP280;33768;48.578;11.574;2023-04-09T13:33:18;97112.25;;;14.47
48003;BMP280;33768;48.578;11.574;2023-04-09T13:36:23;97116.13;;;13.47
48003;BMP280;33768;48.578;11.574;2023-04-09T13:39:27;97112.19;;;13.17
48003;BMP280;33768;48.578;11.574;2023-04-09T13:42:31;97100.78;;;13.90
48003;BMP280;33768;48.578;11.574;2023-04-09T13:45:35;97103.75;;;13.79
48003;BMP280;33768;48.578;11.574;2023-04-09T13:48:40;97109.34;;;13.10
48003;BMP280;33768;48.578;11.574;2023-04-09T13:51:44;97117.78;;;12.49
48003;BMP280;33768;48.578;11.574;2023-04-09T13:54:48;97109.19;;;11.91
48003;BMP280;33768;48.578;11.574;2023-04-09T13:57:52;97117.25;;;12.02
48003;BMP280;33768;48.578;11.574;2023-04-09T14:00:57;97113.31;;;12.34
48003;BMP280;33768;48.578;11.574;2023-04-09T14:04:01;97113.56;;;12.18
48003;BMP280;33768;48.578;11.574;2023-04-09T14:07:05;97109.91;;;12.46
48003;BMP280;33768;48.578;11.574;2023-04-09T14:10:09;97105.72;;;12.58
48003;BMP280;33768;48.578;11.574;2023-04-09T14:13:14;97103.75;;;13.28
48003;BMP280;33768;48.578;11.574;2023-04-09T14:16:18;97095.16;;;13.95
48003;BMP280;33768;48.578;11.574;2023-04-09T14:19:22;97095.13;;;14.41
48003;BMP280;33768;48.578;11.574;2023-04-09T14:22:27;97091.81;;;13.89
48003;BMP280;33768;48.578;11.574;2023-04-09T14:25:31;97102.81;;;13.13
48003;BMP280;33768;48.578;11.574;2023-04-09T14:28:36;97100.03;;;12.87
48003;BMP280;33768;48.578;11.574;2023-04-09T14:31:40;97088.47;;;12.63
48003;BMP280;33768;48.578;11.574;2023-04-09T14:34:45;97103.50;;;12.25
48003;BMP280;33768;48.578;11.574;2023-04-09T14:37:49;97091.25;;;12.45
48003;BMP280;33768;48.578;11.574;2023-04-09T14:40:53;97098.63;;;12.18
48003;BMP280;33768;48.578;11.574;2023-04-09T14:43:57;97094.88;;;11.85
48003;BMP280;33768;48.578;11.574;2023-04-09T14:47:02;97100.69;;;11.58
48003;BMP280;33768;48.578;11.574;2023-04-09T14:50:06;97098.97;;;11.55
48003;BMP280;33768;48.578;11.574;2023-04-09T14:53:10;97091.88;;;12.19
48003;BMP280;33768;48.578;11.574;2023-04-09T14:56:15;97087.25;;;12.77
48003;BMP280;33768;48.578;11.574;2023-04-09T14:59:19;97085.00;;;13.19
48003;BMP280;33768;48.578;11.574;2023-04-09T15:02:24;97086.69;;;13.35
48003;BMP280;33768;48.578;11.574;2023-04-09T15:05:28;97076.63;;;13.75
48003;BMP280;33768;48.578;11.574;2023-04-09T15:08:32;97068.59;;;13.77
48003;BMP280;33768;48.578;11.574;2023-04-09T15:11:36;97074.00;;;13.70
48003;BMP280;33768;48.578;11.574;2023-04-09T15:14:40;97079.09;;;13.66
48003;BMP280;33768;48.578;11.574;2023-04-09T15:17:45;97074.19;;;13.85
48003;BMP280;33768;48.578;11.574;2023-04-09T15:20:49;97067.44;;;13.86
48003;BMP280;33768;48.578;11.574;2023-04-09T15:23:54;97071.72;;;14.07
48003;BMP280;33768;48.578;11.574;2023-04-09T15:26:59;97072.72;;;13.84
48003;BMP280;33768;48.578;11.574;2023-04-09T15:30:04;97074.47;;;13.48
48003;BMP280;33768;48.578;11.574;2023-04-09T15:33:08;97079.63;;;13.26
48003;BMP280;33768;48.578;11.574;2023-04-09T15:36:12;97077.84;;;13.29
48003;BMP280;33768;48.578;11.574;2023-04-09T15:39:17;97071.94;;;13.25
48003;BMP280;33768;48.578;11.574;2023-04-09T15:42:20;97083.53;;;13.18
48003;BMP280;33768;48.578;11.574;2023-04-09T15:45:25;97085.22;;;13.08
48003;BMP280;33768;48.578;11.574;2023-04-09T15:48:29;97084.16;;;13.11
48003;BMP280;33768;48.578;11.574;2023-04-09T15:51:34;97064.88;;;13.16
48003;BMP280;33768;48.578;11.574;2023-04-09T15:54:38;97071.91;;;12.99
48003;BMP280;33768;48.578;11.574;2023-04-09T15:57:43;97074.50;;;12.79
48003;BMP280;33768;48.578;11.574;2023-04-09T16:00:49;97068.63;;;12.57
48003;BMP280;33768;48.578;11.574;2023-04-09T16:03:54;97069.78;;;12.49
48003;BMP280;33768;48.578;11.574;2023-04-09T16:06:58;97069.44;;;12.39
48003;BMP280;33768;48.578;11.574;2023-04-09T16:10:02;97076.00;;;12.18
48003;BMP280;33768;48.578;11.574;2023-04-09T16:13:07;97069.88;;;12.12
48003;BMP280;33768;48.578;11.574;2023-04-09T16:16:11;97070.47;;;12.05
48003;BMP280;33768;48.578;11.574;2023-04-09T16:19:16;97068.75;;;12.02
48003;BMP280;33768;48.578;11.574;2023-04-09T16:22:20;97061.56;;;11.99
48003;BMP280;33768;48.578;11.574;2023-04-09T16:25:25;97065.22;;;11.89
48003;BMP280;33768;48.578;11.574;2023-04-09T16:28:30;97071.66;;;11.73
48003;BMP280;33768;48.578;11.574;2023-04-09T16:31:35;97063.59;;;11.62
48003;BMP280;33768;48.578;11.574;2023-04-09T16:34:39;97074.38;;;11.55
48003;BMP280;33768;48.578;11.574;2023-04-09T16:37:44;97071.34;;;11.58
48003;BMP280;33768;48.578;11.574;2023-04-09T16:40:49;97074.47;;;11.68
48003;BMP280;33768;48.578;11.574;2023-04-09T16:43:53;97077.78;;;11.79
48003;BMP280;33768;48.578;11.574;2023-04-09T16:46:56;97072.03;;;11.83
48003;BMP280;33768;48.578;11.574;2023-04-09T16:50:00;97075.25;;;11.81
48003;BMP280;33768;48.578;11.574;2023-04-09T16:53:06;97071.41;;;11.71
48003;BMP280;33768;48.578;11.574;2023-04-09T16:56:10;97076.88;;;11.71
48003;BMP280;33768;48.578;11.574;2023-04-09T16:59:14;97070.53;;;11.63
48003;BMP280;33768;48.578;11.574;2023-04-09T17:02:21;97071.34;;;11.58
48003;BMP280;33768;48.578;11.574;2023-04-09T17:05:27;97069.81;;;11.63
48003;BMP280;33768;48.578;11.574;2023-04-09T17:08:31;97065.66;;;11.56
48003;BMP280;33768;48.578;11.574;2023-04-09T17:11:36;97067.06;;;11.45
48003;BMP280;33768;48.578;11.574;2023-04-09T17:14:41;97071.38;;;11.35
48003;BMP280;33768;48.578;11.574;2023-04-09T17:17:45;97076.44;;;11.25
48003;BMP280;33768;48.578;11.574;2023-04-09T17:20:52;97080.59;;;11.08
48003;BMP280;33768;48.578;11.574;2023-04-09T17:23:56;97075.13;;;10.85
48003;BMP280;33768;48.578;11.574;2023-04-09T17:27:00;97084.00;;;10.67
48003;BMP280;33768;48.578;11.574;2023-04-09T17:30:04;97092.84;;;10.49
48003;BMP280;33768;48.578;11.574;2023-04-09T17:33:09;97094.22;;;10.32
48003;BMP280;33768;48.578;11.574;2023-04-09T17:36:18;97095.81;;;10.17
48003;BMP280;33768;48.578;11.574;2023-04-09T17:39:23;97105.81;;;10.03
48003;BMP280;33768;48.578;11.574;2023-04-09T17:42:27;97105.66;;;9.85
48003;BMP280;33768;48.578;11.574;2023-04-09T17:45:32;97102.03;;;9.67
48003;BMP280;33768;48.578;11.574;2023-04-09T17:48:36;97106.06;;;9.49
48003;BMP280;33768;48.578;11.574;2023-04-09T17:51:40;97100.66;;;9.38
48003;BMP280;33768;48.578;11.574;2023-04-09T17:54:45;97100.19;;;9.29
48003;BMP280;33768;48.578;11.574;2023-04-09T17:57:50;97108.16;;;9.16